Time;durP1;ratioP1;P1;durP2;ratioP2;P2;SDS_P1;SDS_P2;PMS_P1;PMS_P2;Temp;Humidity;BMP_temperature;BMP_pressure;BME280_temperature;BME280_humidity;BME280_pressure;Samples;Min_cycle;Max_cycle;Signal;HPM_P1;HPM_P2
2022/07/21 00:01:03;;;;;;;9.48;4.85;;;;;;;;;;4974897;28;20027;-70
2022/07/21 00:03:30;;;;;;;8.80;4.38;;;;;;;;;;4974758;28;20046;-69
2022/07/21 00:05:56;;;;;;;10.30;4.65;;;;;;;;;;4975190;28;20031;-70
2022/07/21 00:08:22;;;;;;;10.50;4.90;;;;;;;;;;4974860;28;20031;-70
2022/07/21 00:10:48;;;;;;;10.40;5.28;;;;;;;;;;4974819;28;20105;-69
2022/07/21 00:13:14;;;;;;;9.00;4.60;;;;;;;;;;4974950;28;20565;-69
2022/07/21 00:15:40;;;;;;;9.40;4.32;;;;;;;;;;4974722;28;20110;-69
2022/07/21 00:18:06;;;;;;;9.30;5.00;;;;;;;;;;4974988;28;20022;-69
2022/07/21 00:20:32;;;;;;;9.55;4.43;;;;;;;;;;4974666;28;20102;-70
2022/07/21 00:22:59;;;;;;;10.00;4.93;;;;;;;;;;4974606;28;20110;-70
2022/07/21 00:25:25;;;;;;;9.23;4.53;;;;;;;;;;4974590;28;20038;-70
2022/07/21 00:27:51;;;;;;;8.77;4.15;;;;;;;;;;4974840;28;20029;-69
2022/07/21 00:30:18;;;;;;;9.68;4.63;;;;;;;;;;4974534;28;20027;-69
2022/07/21 00:32:44;;;;;;;10.07;4.20;;;;;;;;;;4974461;28;20068;-70
2022/07/21 00:35:11;;;;;;;9.00;4.60;;;;;;;;;;4974486;28;20027;-69
2022/07/21 00:37:38;;;;;;;8.88;4.45;;;;;;;;;;4974802;28;20023;-70
2022/07/21 00:40:05;;;;;;;7.35;4.40;;;;;;;;;;4974449;28;20504;-69
2022/07/21 00:42:32;;;;;;;8.90;4.68;;;;;;;;;;4974993;28;20051;-69
2022/07/21 00:44:59;;;;;;;9.27;4.60;;;;;;;;;;4974367;28;20031;-69
2022/07/21 00:47:26;;;;;;;9.27;5.20;;;;;;;;;;4974339;28;20033;-70
2022/07/21 00:49:52;;;;;;;9.15;5.05;;;;;;;;;;4974607;28;20082;-70
2022/07/21 00:52:19;;;;;;;10.90;5.03;;;;;;;;;;4974585;28;20031;-70
2022/07/21 00:54:45;;;;;;;10.07;4.80;;;;;;;;;;4974251;28;20035;-70
2022/07/21 00:57:12;;;;;;;11.75;5.38;;;;;;;;;;4974289;28;20077;-70
2022/07/21 00:59:38;;;;;;;9.65;4.90;;;;;;;;;;4974148;28;20027;-69
2022/07/21 01:02:04;;;;;;;9.27;5.47;;;;;;;;;;4974487;28;20520;-69
2022/07/21 01:04:30;;;;;;;9.32;4.75;;;;;;;;;;4973796;28;20059;-69
2022/07/21 01:06:57;;;;;;;13.02;4.82;;;;;;;;;;4974242;28;20157;-70
2022/07/21 01:09:23;;;;;;;6.95;4.78;;;;;;;;;;4974756;28;20034;-69
2022/07/21 01:11:50;;;;;;;10.43;4.65;;;;;;;;;;4974160;28;20031;-69
2022/07/21 01:14:16;;;;;;;9.52;4.95;;;;;;;;;;4974320;28;20102;-70
2022/07/21 01:16:43;;;;;;;9.95;5.13;;;;;;;;;;4974137;28;20487;-70
2022/07/21 01:19:09;;;;;;;12.90;4.47;;;;;;;;;;4974133;28;20500;-70
2022/07/21 01:21:36;;;;;;;8.45;4.72;;;;;;;;;;4974092;28;20102;-69
2022/07/21 01:24:03;;;;;;;9.98;4.82;;;;;;;;;;4974078;28;20490;-70
2022/07/21 01:26:30;;;;;;;9.90;4.43;;;;;;;;;;4974310;28;20077;-69
2022/07/21 01:28:56;;;;;;;12.27;5.60;;;;;;;;;;4974014;28;20496;-70
2022/07/21 01:31:22;;;;;;;8.15;4.93;;;;;;;;;;4974001;28;20027;-69
2022/07/21 01:33:48;;;;;;;8.13;4.95;;;;;;;;;;4973918;28;20106;-69
2022/07/21 01:36:14;;;;;;;9.80;5.60;;;;;;;;;;4973920;28;20114;-69
2022/07/21 01:41:34;;;;;;;8.70;4.80;;;;;;;;;;4974764;28;20030;-70
2022/07/21 01:44:04;;;;;;;9.10;4.60;;;;;;;;;;4974417;28;20531;-70
2022/07/21 01:46:31;;;;;;;10.52;5.10;;;;;;;;;;4973855;28;20023;-69
2022/07/21 01:48:58;;;;;;;8.48;4.55;;;;;;;;;;4974122;28;20054;-70
2022/07/21 01:51:24;;;;;;;8.20;4.85;;;;;;;;;;4973817;28;20058;-69
2022/07/21 01:53:50;;;;;;;9.75;4.78;;;;;;;;;;4975379;28;20031;-70
2022/07/21 01:56:19;;;;;;;10.35;4.63;;;;;;;;;;4977491;28;20495;-70
2022/07/21 01:58:45;;;;;;;11.50;5.32;;;;;;;;;;4959806;28;20382;-69
2022/07/21 02:01:11;;;;;;;9.63;4.47;;;;;;;;;;4977048;28;20023;-69
2022/07/21 02:03:37;;;;;;;10.15;4.97;;;;;;;;;;4977220;28;20055;-69
2022/07/21 02:06:05;;;;;;;7.10;4.25;;;;;;;;;;4976981;28;20501;-70
2022/07/21 02:08:31;;;;;;;6.88;4.65;;;;;;;;;;4977033;28;20040;-70
2022/07/21 02:10:58;;;;;;;8.18;4.63;;;;;;;;;;4977282;28;20460;-70
2022/07/21 02:13:24;;;;;;;11.68;4.53;;;;;;;;;;4976886;28;20053;-69
2022/07/21 02:15:50;;;;;;;10.02;4.85;;;;;;;;;;4976903;28;20469;-69
2022/07/21 02:18:16;;;;;;;10.23;4.63;;;;;;;;;;4976900;28;20031;-70
2022/07/21 02:20:42;;;;;;;10.90;5.00;;;;;;;;;;4977060;28;20436;-69
2022/07/21 02:23:08;;;;;;;9.38;5.43;;;;;;;;;;4976799;28;20031;-70
2022/07/21 02:25:34;;;;;;;7.88;4.75;;;;;;;;;;4977033;28;20030;-70
2022/07/21 02:28:00;;;;;;;10.20;4.65;;;;;;;;;;4959324;28;20401;-70
2022/07/21 02:30:26;;;;;;;11.40;4.97;;;;;;;;;;4976636;28;20023;-70
2022/07/21 02:32:53;;;;;;;12.30;5.25;;;;;;;;;;4976516;28;20042;-70
2022/07/21 02:35:19;;;;;;;9.82;5.20;;;;;;;;;;4976517;28;20046;-69
2022/07/21 02:37:45;;;;;;;7.82;4.75;;;;;;;;;;4976468;28;20065;-69
2022/07/21 02:40:11;;;;;;;8.00;4.75;;;;;;;;;;4976486;28;20023;-69
2022/07/21 02:42:37;;;;;;;7.53;4.38;;;;;;;;;;4976938;28;20023;-69
2022/07/21 02:45:04;;;;;;;7.95;4.13;;;;;;;;;;4976409;28;20030;-69
2022/07/21 02:47:30;;;;;;;7.80;4.15;;;;;;;;;;4976884;28;20031;-69
2022/07/21 02:49:56;;;;;;;10.57;3.92;;;;;;;;;;4976277;28;20481;-69
2022/07/21 02:52:22;;;;;;;10.35;4.15;;;;;;;;;;4976236;28;20026;-69
2022/07/21 02:54:48;;;;;;;9.63;4.45;;;;;;;;;;4976164;28;20029;-69
2022/07/21 02:57:15;;;;;;;9.95;4.53;;;;;;;;;;4976128;28;20037;-69
2022/07/21 02:59:41;;;;;;;9.30;4.53;;;;;;;;;;4976257;28;20027;-69
2022/07/21 03:02:07;;;;;;;11.02;4.50;;;;;;;;;;4976111;28;20030;-69
2022/07/21 03:04:33;;;;;;;9.88;4.05;;;;;;;;;;4958242;28;20109;-69
2022/07/21 03:06:59;;;;;;;7.53;3.88;;;;;;;;;;4975981;28;20481;-70
2022/07/21 03:09:25;;;;;;;8.32;4.43;;;;;;;;;;4958638;28;20031;-69
2022/07/21 03:11:51;;;;;;;8.77;3.95;;;;;;;;;;4975921;28;20535;-69
2022/07/21 03:14:17;;;;;;;7.00;3.95;;;;;;;;;;4975752;28;20117;-70
2022/07/21 03:16:43;;;;;;;7.03;3.90;;;;;;;;;;4976109;28;20080;-69
2022/07/21 03:19:09;;;;;;;8.10;4.35;;;;;;;;;;4975721;28;20393;-69
2022/07/21 03:21:35;;;;;;;9.05;4.65;;;;;;;;;;4975723;28;20027;-69
2022/07/21 03:24:00;;;;;;;8.07;4.25;;;;;;;;;;4958321;28;20033;-69
2022/07/21 03:26:26;;;;;;;6.88;4.28;;;;;;;;;;4958273;28;20485;-69
2022/07/21 03:28:52;;;;;;;8.38;4.45;;;;;;;;;;4975814;28;20026;-69
2022/07/21 03:31:18;;;;;;;8.70;4.55;;;;;;;;;;4975770;28;20105;-69
2022/07/21 03:33:44;;;;;;;6.03;3.70;;;;;;;;;;4975397;28;20027;-69
2022/07/21 03:36:10;;;;;;;10.02;4.50;;;;;;;;;;4975425;28;20019;-70
2022/07/21 03:38:37;;;;;;;6.35;3.92;;;;;;;;;;4975423;28;20077;-69
2022/07/21 03:41:03;;;;;;;10.65;4.07;;;;;;;;;;4975375;28;20037;-69
2022/07/21 03:43:29;;;;;;;10.57;4.93;;;;;;;;;;4958563;28;20030;-69
2022/07/21 03:45:55;;;;;;;7.63;4.22;;;;;;;;;;4975267;28;20073;-70
2022/07/21 03:48:21;;;;;;;8.20;4.70;;;;;;;;;;4975208;28;20110;-69
2022/07/21 03:50:47;;;;;;;7.10;4.30;;;;;;;;;;4975429;28;20027;-69
2022/07/21 03:53:13;;;;;;;6.47;4.15;;;;;;;;;;4975078;28;20173;-69
2022/07/21 03:55:39;;;;;;;7.65;4.32;;;;;;;;;;4975077;28;20481;-69
2022/07/21 03:58:06;;;;;;;7.20;4.32;;;;;;;;;;4975042;28;20023;-69
2022/07/21 04:00:38;;;;;;;8.95;4.85;;;;;;;;;;4974958;28;20018;-70
2022/07/21 04:03:05;;;;;;;9.07;4.25;;;;;;;;;;4975005;28;20122;-69
2022/07/21 04:05:31;;;;;;;9.10;4.78;;;;;;;;;;4975024;28;20055;-69
2022/07/21 04:07:57;;;;;;;8.07;4.43;;;;;;;;;;4974794;28;20031;-69
2022/07/21 04:10:24;;;;;;;8.02;4.60;;;;;;;;;;4975109;28;20065;-69
2022/07/21 04:12:51;;;;;;;8.38;4.80;;;;;;;;;;4974813;28;20033;-69
2022/07/21 04:15:17;;;;;;;7.20;4.10;;;;;;;;;;4974699;28;20049;-69
2022/07/21 04:17:43;;;;;;;7.95;4.28;;;;;;;;;;4974284;28;20078;-69
2022/07/21 04:20:10;;;;;;;6.85;4.30;;;;;;;;;;4974946;28;20057;-69
2022/07/21 04:22:36;;;;;;;9.02;4.28;;;;;;;;;;4974624;28;20073;-69
2022/07/21 04:25:04;;;;;;;10.10;5.03;;;;;;;;;;4974888;28;20027;-70
2022/07/21 04:27:30;;;;;;;9.50;4.57;;;;;;;;;;4974880;28;20026;-69
2022/07/21 04:29:56;;;;;;;10.52;4.50;;;;;;;;;;4974575;28;20058;-69
2022/07/21 04:32:22;;;;;;;8.30;4.50;;;;;;;;;;4974552;28;20027;-69
2022/07/21 04:34:48;;;;;;;6.53;3.58;;;;;;;;;;4974392;28;20026;-69
2022/07/21 04:37:14;;;;;;;6.68;3.92;;;;;;;;;;4974997;28;20019;-69
2022/07/21 04:39:40;;;;;;;7.18;4.55;;;;;;;;;;4974967;28;20038;-70
2022/07/21 04:42:06;;;;;;;11.13;5.13;;;;;;;;;;4975191;28;20026;-69
2022/07/21 04:44:32;;;;;;;9.50;5.10;;;;;;;;;;4974953;28;20031;-70
2022/07/21 04:46:58;;;;;;;8.02;4.13;;;;;;;;;;4974611;28;20023;-69
2022/07/21 04:49:24;;;;;;;8.05;4.57;;;;;;;;;;4974353;28;20031;-69
2022/07/21 04:51:50;;;;;;;7.57;4.00;;;;;;;;;;4974350;28;20489;-69
2022/07/21 04:54:16;;;;;;;10.60;4.63;;;;;;;;;;4974232;28;20038;-69
2022/07/21 04:56:43;;;;;;;6.57;4.35;;;;;;;;;;4974552;28;20030;-70
2022/07/21 04:59:09;;;;;;;8.18;4.78;;;;;;;;;;4956892;28;20129;-69
2022/07/21 05:01:35;;;;;;;7.97;4.45;;;;;;;;;;4974402;28;20030;-69
2022/07/21 05:04:01;;;;;;;7.60;4.22;;;;;;;;;;4974039;28;20096;-69
2022/07/21 05:06:27;;;;;;;7.63;4.28;;;;;;;;;;4974488;28;20046;-69
2022/07/21 05:08:53;;;;;;;11.50;4.78;;;;;;;;;;4974484;28;20114;-69
2022/07/21 05:11:19;;;;;;;6.57;4.13;;;;;;;;;;4974462;28;20039;-69
2022/07/21 05:13:45;;;;;;;8.10;4.13;;;;;;;;;;4974296;28;20465;-69
2022/07/21 05:16:12;;;;;;;8.38;4.55;;;;;;;;;;4974130;28;20023;-69
2022/07/21 05:18:38;;;;;;;8.45;4.88;;;;;;;;;;4956778;28;20495;-70
2022/07/21 05:21:04;;;;;;;10.45;5.57;;;;;;;;;;4974363;28;20030;-69
2022/07/21 05:23:30;;;;;;;9.00;4.18;;;;;;;;;;4974337;28;20073;-69
2022/07/21 05:25:56;;;;;;;8.90;4.57;;;;;;;;;;4974072;28;20070;-69
2022/07/21 05:28:22;;;;;;;6.40;4.45;;;;;;;;;;4975040;28;20425;-69
2022/07/21 05:30:48;;;;;;;6.50;4.35;;;;;;;;;;4977737;28;20034;-69
2022/07/21 05:33:14;;;;;;;7.82;4.50;;;;;;;;;;4977894;28;20029;-69
2022/07/21 05:35:40;;;;;;;6.90;3.83;;;;;;;;;;4960337;28;20038;-69
2022/07/21 05:38:06;;;;;;;6.75;4.65;;;;;;;;;;4977664;28;20106;-69
2022/07/21 05:40:32;;;;;;;7.63;4.63;;;;;;;;;;4977893;28;20033;-70
2022/07/21 05:42:58;;;;;;;6.90;4.40;;;;;;;;;;4978326;28;20041;-69
2022/07/21 05:45:24;;;;;;;7.28;4.22;;;;;;;;;;4977467;28;20458;-69
2022/07/21 05:47:50;;;;;;;8.75;4.10;;;;;;;;;;4977408;28;20023;-69
2022/07/21 05:50:16;;;;;;;9.80;4.28;;;;;;;;;;4977405;28;20034;-70
2022/07/21 05:52:42;;;;;;;9.30;4.82;;;;;;;;;;4977649;28;20078;-69
2022/07/21 05:55:09;;;;;;;12.07;5.10;;;;;;;;;;4977516;28;20035;-69
2022/07/21 05:57:35;;;;;;;8.82;4.53;;;;;;;;;;4977243;28;20489;-70
2022/07/21 06:00:01;;;;;;;6.22;3.95;;;;;;;;;;4977147;28;20027;-70
2022/07/21 06:02:30;;;;;;;7.35;4.30;;;;;;;;;;4977482;28;20027;-69
2022/07/21 06:04:56;;;;;;;7.00;4.10;;;;;;;;;;4977213;28;20030;-69
2022/07/21 06:07:22;;;;;;;8.10;4.70;;;;;;;;;;4977099;28;20038;-70
2022/07/21 06:09:48;;;;;;;6.75;4.68;;;;;;;;;;4977311;28;20053;-69
2022/07/21 06:12:14;;;;;;;6.47;3.83;;;;;;;;;;4959638;28;20038;-69
2022/07/21 06:14:41;;;;;;;8.63;4.50;;;;;;;;;;4977157;28;20139;-70
2022/07/21 06:17:07;;;;;;;6.53;4.05;;;;;;;;;;4976895;28;20434;-69
2022/07/21 06:19:33;;;;;;;10.75;4.13;;;;;;;;;;4976838;28;20058;-70
2022/07/21 06:21:59;;;;;;;11.30;4.10;;;;;;;;;;4977116;28;20023;-70
2022/07/21 06:24:26;;;;;;;7.57;3.83;;;;;;;;;;4976808;28;20085;-70
2022/07/21 06:26:55;;;;;;;7.25;4.38;;;;;;;;;;4976705;28;20023;-70
2022/07/21 06:29:21;;;;;;;9.32;4.30;;;;;;;;;;4977248;28;20030;-69
2022/07/21 06:31:47;;;;;;;10.15;4.28;;;;;;;;;;4976625;28;20404;-68
2022/07/21 06:34:13;;;;;;;11.20;5.05;;;;;;;;;;4976578;28;20461;-68
2022/07/21 06:36:39;;;;;;;10.30;4.90;;;;;;;;;;4976571;28;20033;-69
2022/07/21 06:39:05;;;;;;;9.35;5.20;;;;;;;;;;4976121;28;20057;-69
2022/07/21 06:41:31;;;;;;;8.35;4.95;;;;;;;;;;4976506;28;20019;-68
2022/07/21 06:43:58;;;;;;;7.28;4.85;;;;;;;;;;4976944;28;20034;-67
2022/07/21 06:46:24;;;;;;;8.45;4.93;;;;;;;;;;4976445;28;20069;-68
2022/07/21 06:48:50;;;;;;;9.52;5.30;;;;;;;;;;4976384;28;20034;-68
2022/07/21 06:51:16;;;;;;;9.10;5.15;;;;;;;;;;4976582;28;20029;-68
2022/07/21 06:53:42;;;;;;;12.52;6.22;;;;;;;;;;4976463;28;20385;-68
2022/07/21 06:56:08;;;;;;;7.80;4.95;;;;;;;;;;4976252;28;20022;-68
2022/07/21 06:58:35;;;;;;;9.60;5.03;;;;;;;;;;4976227;28;20086;-69
2022/07/21 07:01:01;;;;;;;9.52;5.13;;;;;;;;;;4976100;28;20022;-68
2022/07/21 07:03:27;;;;;;;9.55;5.07;;;;;;;;;;4975994;28;20481;-69
2022/07/21 07:05:53;;;;;;;10.50;4.90;;;;;;;;;;4978176;28;20031;-68
2022/07/21 07:08:19;;;;;;;9.93;4.70;;;;;;;;;;4976020;28;20034;-77
2022/07/21 07:10:46;;;;;;;8.82;4.53;;;;;;;;;;4975911;28;20034;-75
2022/07/21 07:13:13;;;;;;;10.80;3.95;;;;;;;;;;4976681;28;20489;-75
2022/07/21 07:15:39;;;;;;;7.40;3.80;;;;;;;;;;4988302;28;20440;-74
2022/07/21 07:18:05;;;;;;;6.15;3.55;;;;;;;;;;4995183;28;20453;-74
2022/07/21 07:20:31;;;;;;;8.20;4.00;;;;;;;;;;4995206;28;20022;-76
2022/07/21 07:22:57;;;;;;;10.68;4.32;;;;;;;;;;4986383;28;20022;-74
2022/07/21 07:25:24;;;;;;;10.88;3.78;;;;;;;;;;4995317;28;20030;-68
2022/07/21 07:27:51;;;;;;;9.75;3.92;;;;;;;;;;4995021;28;20035;-71
2022/07/21 07:30:18;;;;;;;10.02;4.10;;;;;;;;;;4992055;28;20026;-76
2022/07/21 07:32:44;;;;;;;9.32;4.28;;;;;;;;;;4991580;28;20085;-75
2022/07/21 07:35:11;;;;;;;9.63;4.55;;;;;;;;;;4977345;28;20033;-73
2022/07/21 07:37:38;;;;;;;7.65;3.78;;;;;;;;;;4993475;28;20037;-72
2022/07/21 07:40:07;;;;;;;6.25;3.35;;;;;;;;;;4994779;28;20026;-74
2022/07/21 07:42:33;;;;;;;8.50;4.00;;;;;;;;;;4960286;28;20034;-70
2022/07/21 07:44:59;;;;;;;8.40;3.83;;;;;;;;;;4975227;28;20077;-74
2022/07/21 07:47:25;;;;;;;7.07;3.88;;;;;;;;;;4988952;28;20042;-71
2022/07/21 07:49:52;;;;;;;5.57;4.05;;;;;;;;;;4994709;28;20101;-73
2022/07/21 07:52:19;;;;;;;8.50;4.55;;;;;;;;;;4993924;28;20030;-72
2022/07/21 07:54:45;;;;;;;9.27;3.72;;;;;;;;;;4993524;28;20029;-69
2022/07/21 07:57:11;;;;;;;6.53;3.58;;;;;;;;;;4991308;28;20031;-70
2022/07/21 07:59:37;;;;;;;6.43;3.53;;;;;;;;;;4975052;28;20031;-73
2022/07/21 08:02:03;;;;;;;9.32;3.75;;;;;;;;;;4958147;28;20125;-73
2022/07/21 08:04:29;;;;;;;8.30;3.40;;;;;;;;;;4974674;28;20129;-68
2022/07/21 08:06:55;;;;;;;6.97;3.53;;;;;;;;;;4975170;28;20034;-68
2022/07/21 08:09:21;;;;;;;7.82;3.40;;;;;;;;;;4975750;28;20106;-67
2022/07/21 08:11:48;;;;;;;7.88;3.67;;;;;;;;;;4974802;28;20154;-68
2022/07/21 08:14:15;;;;;;;7.53;3.72;;;;;;;;;;4975094;28;20023;-69
2022/07/21 08:16:41;;;;;;;6.22;3.45;;;;;;;;;;4975001;28;20501;-69
2022/07/21 08:19:07;;;;;;;9.60;3.65;;;;;;;;;;4974242;28;20405;-69
2022/07/21 08:21:33;;;;;;;8.82;3.53;;;;;;;;;;4975110;28;20030;-68
2022/07/21 08:24:00;;;;;;;7.25;3.30;;;;;;;;;;4982238;28;20026;-71
2022/07/21 08:26:26;;;;;;;9.00;3.92;;;;;;;;;;4994174;28;20105;-70
2022/07/21 08:28:53;;;;;;;9.98;3.80;;;;;;;;;;4976203;28;20110;-75
2022/07/21 08:31:19;;;;;;;6.78;3.80;;;;;;;;;;4957801;28;20404;-74
2022/07/21 08:33:45;;;;;;;6.90;3.65;;;;;;;;;;4974545;28;20459;-77
2022/07/21 08:36:11;;;;;;;7.65;4.07;;;;;;;;;;4978345;28;20523;-72
2022/07/21 08:38:37;;;;;;;7.97;4.30;;;;;;;;;;4974497;28;20018;-72
2022/07/21 08:41:04;;;;;;;6.32;3.50;;;;;;;;;;4974722;28;20078;-72
2022/07/21 08:43:31;;;;;;;9.82;3.45;;;;;;;;;;4975194;28;20105;-74
2022/07/21 08:45:57;;;;;;;13.82;3.63;;;;;;;;;;4986093;28;20038;-68
2022/07/21 08:48:26;;;;;;;7.20;4.20;;;;;;;;;;4993922;28;20054;-68
2022/07/21 08:50:52;;;;;;;7.47;3.80;;;;;;;;;;4993904;28;20088;-67
2022/07/21 08:53:18;;;;;;;9.18;3.70;;;;;;;;;;4993745;28;20492;-68
2022/07/21 08:55:45;;;;;;;8.88;3.78;;;;;;;;;;4993760;28;20027;-68
2022/07/21 08:58:11;;;;;;;9.85;3.60;;;;;;;;;;4993716;28;20030;-68
2022/07/21 09:00:39;;;;;;;8.68;3.85;;;;;;;;;;4993718;28;20453;-68
2022/07/21 09:03:08;;;;;;;7.78;3.88;;;;;;;;;;4995634;28;20050;-68
2022/07/21 09:05:34;;;;;;;6.70;3.77;;;;;;;;;;4997771;28;20025;-68
2022/07/21 09:08:00;;;;;;;6.55;3.42;;;;;;;;;;4990899;28;20265;-69
2022/07/21 09:10:27;;;;;;;6.72;3.47;;;;;;;;;;4984075;28;20519;-75
2022/07/21 09:12:55;;;;;;;8.23;3.50;;;;;;;;;;4994274;28;20026;-72
2022/07/21 09:15:22;;;;;;;10.40;4.00;;;;;;;;;;4996562;28;20485;-74
2022/07/21 09:18:04;;;;;;;5.45;3.13;;;;;;;;;;4995504;28;20022;-73
2022/07/21 09:20:30;;;;;;;8.57;3.72;;;;;;;;;;4997772;28;20432;-67
2022/07/21 09:23:03;;;;;;;5.75;3.38;;;;;;;;;;4997465;28;20026;-75
2022/07/21 09:25:36;;;;;;;8.40;3.55;;;;;;;;;;4997242;28;20065;-76
2022/07/21 09:28:13;;;;;;;9.20;3.72;;;;;;;;;;4990496;28;20030;-76
2022/07/21 09:30:48;;;;;;;5.80;3.05;;;;;;;;;;4996895;28;20030;-79
2022/07/21 09:33:33;;;;;;;11.43;3.85;;;;;;;;;;4979532;28;20440;-75
2022/07/21 09:35:59;;;;;;;7.68;3.70;;;;;;;;;;4994034;28;20041;-73
2022/07/21 09:38:26;;;;;;;6.15;3.30;;;;;;;;;;4980626;28;20030;-77
2022/07/21 09:40:52;;;;;;;5.32;3.42;;;;;;;;;;4977806;28;20101;-75
2022/07/21 09:43:41;;;;;;;5.32;3.28;;;;;;;;;;4960793;28;20023;-69
2022/07/21 09:46:08;;;;;;;5.43;3.03;;;;;;;;;;4959877;28;20489;-72
2022/07/21 09:48:35;;;;;;;6.65;3.42;;;;;;;;;;4977251;28;20027;-72
2022/07/21 09:51:19;;;;;;;6.45;3.30;;;;;;;;;;4977352;28;20096;-78
2022/07/21 09:53:49;;;;;;;6.13;3.03;;;;;;;;;;4959664;28;20090;-76
2022/07/21 09:56:17;;;;;;;4.88;2.90;;;;;;;;;;4976624;28;20031;-74
2022/07/21 09:58:43;;;;;;;6.75;3.25;;;;;;;;;;4981259;28;20019;-75
2022/07/21 10:01:09;;;;;;;8.45;3.10;;;;;;;;;;4959576;28;20034;-74
2022/07/21 10:03:35;;;;;;;5.63;2.78;;;;;;;;;;4955918;28;20453;-71
2022/07/21 10:06:02;;;;;;;6.28;2.90;;;;;;;;;;4958477;29;20032;-70
2022/07/21 10:08:28;;;;;;;4.63;2.67;;;;;;;;;;4958680;28;20402;-72
2022/07/21 10:10:54;;;;;;;5.80;2.97;;;;;;;;;;4957952;28;20086;-71
2022/07/21 10:13:20;;;;;;;3.83;2.40;;;;;;;;;;4957898;28;20066;-71
2022/07/21 10:15:47;;;;;;;5.22;2.70;;;;;;;;;;4960271;28;20153;-70
2022/07/21 10:18:14;;;;;;;4.57;2.50;;;;;;;;;;4968643;28;20039;-77
2022/07/21 10:20:42;;;;;;;6.03;2.67;;;;;;;;;;4967959;28;20110;-76
2022/07/21 10:23:43;;;;;;;5.10;2.70;;;;;;;;;;4976793;28;20019;-71
2022/07/21 10:26:10;;;;;;;4.85;2.67;;;;;;;;;;4917497;29;20028;-74
2022/07/21 10:28:36;;;;;;;4.93;3.00;;;;;;;;;;4961942;28;20047;-70
2022/07/21 10:31:22;;;;;;;7.40;3.00;;;;;;;;;;4962366;28;20038;-69
2022/07/21 10:33:48;;;;;;;3.92;2.60;;;;;;;;;;4957674;28;20027;-71
2022/07/21 10:36:31;;;;;;;3.58;2.72;;;;;;;;;;4957492;28;20019;-73
2022/07/21 10:39:06;;;;;;;5.07;2.80;;;;;;;;;;4956204;29;20016;-71
2022/07/21 10:41:39;;;;;;;4.10;2.65;;;;;;;;;;4957250;28;20058;-71
2022/07/21 10:44:30;;;;;;;6.30;2.70;;;;;;;;;;4957941;28;20035;-70
2022/07/21 10:47:08;;;;;;;4.60;2.58;;;;;;;;;;4948907;29;20043;-70
2022/07/21 10:49:49;;;;;;;4.50;2.80;;;;;;;;;;4957397;28;20032;-71
2022/07/21 10:52:34;;;;;;;5.03;2.22;;;;;;;;;;4956410;29;20039;-69
2022/07/21 10:55:28;;;;;;;4.93;2.55;;;;;;;;;;4956712;28;20097;-71
2022/07/21 10:58:14;;;;;;;5.50;2.95;;;;;;;;;;4955277;28;20082;-71
2022/07/21 11:00:44;;;;;;;5.68;3.03;;;;;;;;;;4956002;28;20026;-71
2022/07/21 11:03:14;;;;;;;4.13;2.58;;;;;;;;;;4962778;28;20061;-70
2022/07/21 11:06:00;;;;;;;6.00;2.63;;;;;;;;;;4975344;28;20026;-71
2022/07/21 11:08:32;;;;;;;6.45;2.83;;;;;;;;;;4975201;28;20495;-69
2022/07/21 11:11:15;;;;;;;4.03;2.38;;;;;;;;;;4975494;28;20018;-70
2022/07/21 11:14:00;;;;;;;3.45;2.25;;;;;;;;;;4975869;28;20037;-70
2022/07/21 11:16:46;;;;;;;4.40;2.78;;;;;;;;;;4975712;28;20080;-70
2022/07/21 11:19:27;;;;;;;6.85;3.30;;;;;;;;;;4975758;28;20371;-71
2022/07/21 11:21:54;;;;;;;5.70;2.60;;;;;;;;;;4976025;28;20023;-70
2022/07/21 11:24:21;;;;;;;3.25;2.33;;;;;;;;;;4975752;28;20035;-70
2022/07/21 11:27:04;;;;;;;5.75;2.88;;;;;;;;;;4974839;28;20437;-70
2022/07/21 11:29:31;;;;;;;5.80;2.63;;;;;;;;;;4975839;28;20031;-71
2022/07/21 11:31:58;;;;;;;4.97;2.63;;;;;;;;;;4975562;28;20031;-71
2022/07/21 11:34:25;;;;;;;5.65;2.60;;;;;;;;;;4975470;28;20038;-70
2022/07/21 11:37:01;;;;;;;6.00;3.03;;;;;;;;;;4975404;28;20015;-70
2022/07/21 11:39:27;;;;;;;3.65;2.65;;;;;;;;;;4958096;28;20449;-70
2022/07/21 11:41:54;;;;;;;3.60;2.50;;;;;;;;;;4975407;28;20073;-70
2022/07/21 11:44:24;;;;;;;4.35;2.95;;;;;;;;;;4958568;28;20035;-71
2022/07/21 11:46:53;;;;;;;5.95;2.78;;;;;;;;;;4975331;28;20054;-70
2022/07/21 11:49:19;;;;;;;5.72;2.45;;;;;;;;;;4975844;28;20469;-70
2022/07/21 11:51:57;;;;;;;6.03;2.65;;;;;;;;;;4973572;28;20111;-70
2022/07/21 11:54:24;;;;;;;4.82;2.88;;;;;;;;;;4973051;28;20030;-70
2022/07/21 11:56:51;;;;;;;4.10;2.47;;;;;;;;;;4973137;28;20027;-71
2022/07/21 11:59:17;;;;;;;6.40;2.65;;;;;;;;;;4973057;28;20106;-70
2022/07/21 12:01:57;;;;;;;5.57;2.80;;;;;;;;;;4973050;28;20027;-70
2022/07/21 12:04:26;;;;;;;3.20;2.45;;;;;;;;;;4973375;28;20125;-70
2022/07/21 12:06:53;;;;;;;6.53;2.50;;;;;;;;;;4974523;28;20393;-70
2022/07/21 12:09:19;;;;;;;4.82;2.70;;;;;;;;;;4957549;28;20039;-69
2022/07/21 12:11:45;;;;;;;3.78;2.58;;;;;;;;;;4974882;28;20514;-71
2022/07/21 12:14:11;;;;;;;4.05;2.55;;;;;;;;;;4974757;28;20027;-69
2022/07/21 12:16:53;;;;;;;5.72;2.60;;;;;;;;;;4974798;28;20168;-70
2022/07/21 12:19:19;;;;;;;3.15;2.28;;;;;;;;;;4975029;28;20030;-71
2022/07/21 12:21:46;;;;;;;5.25;2.58;;;;;;;;;;4974790;28;20102;-70
2022/07/21 12:24:12;;;;;;;3.60;2.50;;;;;;;;;;4957403;28;20477;-70
2022/07/21 12:26:38;;;;;;;6.93;2.78;;;;;;;;;;4957395;28;20393;-69
2022/07/21 12:29:04;;;;;;;3.83;2.53;;;;;;;;;;4974609;28;20488;-70
2022/07/21 12:31:32;;;;;;;4.10;2.60;;;;;;;;;;4974556;28;20023;-71
2022/07/21 12:34:10;;;;;;;3.05;2.42;;;;;;;;;;4974763;28;20034;-70
2022/07/21 12:36:36;;;;;;;4.50;2.50;;;;;;;;;;4974700;28;20106;-70
2022/07/21 12:39:14;;;;;;;4.90;2.83;;;;;;;;;;4974435;28;20053;-71
2022/07/21 12:41:45;;;;;;;4.25;2.72;;;;;;;;;;4974740;28;20023;-70
2022/07/21 12:44:11;;;;;;;5.53;2.85;;;;;;;;;;4975115;28;20076;-71
2022/07/21 12:46:39;;;;;;;4.20;2.55;;;;;;;;;;4974374;28;20023;-69
2022/07/21 12:49:05;;;;;;;4.53;2.90;;;;;;;;;;4974324;28;20026;-70
2022/07/21 12:51:31;;;;;;;8.73;3.90;;;;;;;;;;4974671;28;20081;-70
2022/07/21 12:53:57;;;;;;;4.95;2.83;;;;;;;;;;4974116;28;20026;-70
2022/07/21 12:56:24;;;;;;;5.15;2.63;;;;;;;;;;4974499;28;20029;-70
2022/07/21 12:58:51;;;;;;;5.47;2.50;;;;;;;;;;4974104;28;20046;-72
2022/07/21 13:01:18;;;;;;;5.10;2.97;;;;;;;;;;4974077;28;20521;-69
2022/07/21 13:03:44;;;;;;;6.03;2.92;;;;;;;;;;4974075;28;20054;-70
2022/07/21 13:06:13;;;;;;;5.78;2.75;;;;;;;;;;4956819;28;20027;-72
2022/07/21 13:08:39;;;;;;;4.70;2.83;;;;;;;;;;4974659;28;20110;-71
2022/07/21 13:11:06;;;;;;;8.25;2.83;;;;;;;;;;4974138;28;20035;-71
2022/07/21 13:13:32;;;;;;;6.50;3.30;;;;;;;;;;4974060;28;20058;-71
2022/07/21 13:15:58;;;;;;;6.72;2.63;;;;;;;;;;4974389;28;20385;-71
2022/07/21 13:18:24;;;;;;;4.85;2.70;;;;;;;;;;4974424;28;20027;-70
2022/07/21 13:20:51;;;;;;;10.30;2.90;;;;;;;;;;4974131;28;20593;-69
2022/07/21 13:23:17;;;;;;;4.75;2.50;;;;;;;;;;4974323;28;20504;-72
2022/07/21 13:25:44;;;;;;;4.93;2.85;;;;;;;;;;4974010;28;20393;-71
2022/07/21 13:28:10;;;;;;;4.80;2.85;;;;;;;;;;4956970;28;20513;-71
2022/07/21 13:30:36;;;;;;;3.15;2.47;;;;;;;;;;4956525;28;20121;-71
2022/07/21 13:33:02;;;;;;;6.07;3.30;;;;;;;;;;4974005;28;20033;-72
2022/07/21 13:35:28;;;;;;;4.25;2.90;;;;;;;;;;4974152;28;20034;-72
2022/07/21 13:37:55;;;;;;;5.50;2.85;;;;;;;;;;4974414;28;20023;-71
2022/07/21 13:40:21;;;;;;;3.85;2.53;;;;;;;;;;4974470;28;20019;-71
2022/07/21 13:42:47;;;;;;;43.45;8.07;;;;;;;;;;4974164;28;20030;-71
2022/07/21 13:45:14;;;;;;;11.18;2.78;;;;;;;;;;4974432;28;20086;-70
2022/07/21 13:47:40;;;;;;;286.17;34.88;;;;;;;;;;4973808;28;20053;-72
2022/07/21 13:50:06;;;;;;;318.90;38.50;;;;;;;;;;4975525;28;20464;-71
2022/07/21 13:52:33;;;;;;;76.75;13.50;;;;;;;;;;4977893;28;20054;-70
2022/07/21 13:54:59;;;;;;;3.53;2.30;;;;;;;;;;4977802;28;20026;-70
2022/07/21 13:57:26;;;;;;;4.38;2.78;;;;;;;;;;4977305;28;20038;-71
2022/07/21 13:59:52;;;;;;;4.07;2.40;;;;;;;;;;4977739;28;20066;-71
2022/07/21 14:02:18;;;;;;;5.93;2.70;;;;;;;;;;4977723;28;20023;-72
2022/07/21 14:04:44;;;;;;;5.63;2.60;;;;;;;;;;4977066;28;20055;-72
2022/07/21 14:07:14;;;;;;;9.45;3.55;;;;;;;;;;4977170;28;20081;-70
2022/07/21 14:09:43;;;;;;;4.22;2.53;;;;;;;;;;4977109;28;20516;-70
2022/07/21 14:12:10;;;;;;;6.28;2.65;;;;;;;;;;4977140;28;20084;-72
2022/07/21 14:14:36;;;;;;;4.13;2.40;;;;;;;;;;4976976;28;20031;-70
2022/07/21 14:17:03;;;;;;;4.57;2.70;;;;;;;;;;4976997;28;20397;-72
2022/07/21 14:19:29;;;;;;;5.68;2.72;;;;;;;;;;4977001;28;20023;-71
2022/07/21 14:21:55;;;;;;;6.50;2.97;;;;;;;;;;4976921;28;20448;-71
2022/07/21 14:27:06;;;;;;;3.47;2.42;;;;;;;;;;4977424;28;20508;-70
2022/07/21 14:29:32;;;;;;;7.57;2.70;;;;;;;;;;4976810;28;20058;-71
2022/07/21 14:31:58;;;;;;;3.65;2.35;;;;;;;;;;4976749;28;20114;-71
2022/07/21 14:34:24;;;;;;;4.55;2.22;;;;;;;;;;4976601;28;20023;-71
2022/07/21 14:36:51;;;;;;;4.38;2.40;;;;;;;;;;4976864;28;20393;-71
2022/07/21 14:39:17;;;;;;;9.68;3.28;;;;;;;;;;4976571;28;20023;-70
2022/07/21 14:41:44;;;;;;;3.22;2.40;;;;;;;;;;4976565;28;20023;-71
2022/07/21 14:44:10;;;;;;;4.35;2.55;;;;;;;;;;4977550;28;20109;-71
2022/07/21 14:46:36;;;;;;;16.25;3.50;;;;;;;;;;4959110;28;20416;-71
2022/07/21 14:49:02;;;;;;;5.63;2.83;;;;;;;;;;4976430;28;20022;-70